Архив погоды в Пошехонье

Метеограмма Пошехонье
Вторник, 16 Октября
Время местн. Темп Ветер Видим Явления Облачность нижн/средн/верх Атм. давл. Влжн Точка росы ВНГО R Сост. почвы Tg s
Напр Скр Прв ур.ст ур.м изм
00:00 +7.4° Ю-З 1 - 50 км - ясно 757 768 -0.2 92% +6.2° более 2.5 км - - - -
Понедельник, 15 Октября
Время местн. Темп Ветер Видим Явления Облачность нижн/средн/верх Атм. давл. Влжн Точка росы ВНГО R Сост. почвы Tg s
Напр Скр Прв ур.ст ур.м изм
21:00 +8.2° З 1 - 50 км - ясно 757 768 0 89% +6.5° более 2.5 км - - - -
18:00 +12° З 3 - 50 км - ясно 757 768 -0.8 78% +8.3° более 2.5 км - - - -
15:00 +14.2° З 2 - 40 км - ясно 758 769 -0.3 73% +9.4° более 2.5 км - - - -
12:00 +12° З 4 - 6 км - переменная облачность 758 769 +0.5 85% +9.6° 1 км - - - -
09:00 +9.4° З 3 - 4 км дымка ясно 758 769 +0.3 95% +8.6° более 2.5 км - - - -
06:00 +7.5° З,Ю-З 2 - 4 км дымка ясно 758 768 +0.5 95% +6.8° более 2.5 км - Влажная (без луж) - -
03:00 +8.8° З,Ю-З 2 - 4 км дымка ясно 757 768 +0.2 92% +7.5° более 2.5 км - - - -
00:00 +9.9° З 2 - 50 км - ясно 757 768 +0.5 88% +8° более 2.5 км - - - -
Воскресенье, 14 Октября
Время местн. Темп Ветер Видим Явления Облачность нижн/средн/верх Атм. давл. Влжн Точка росы ВНГО R Сост. почвы Tg s
Напр Скр Прв ур.ст ур.м изм
21:00 +10.2° З 3 - 50 км - ясно 756 767 +0.3 89% +8.5° более 2.5 км - - - -
18:00 +11.6° З 3 - 50 км - переменная облачность 756 767 -0.3 85% +9.2° более 2.5 км - - - -
15:00 +13.7° З 3 - 40 км небо без изменений {туман} облачно с прояснениями 756 767 -1.1 76% +9.5° 600 м - - - -
12:00 +10.1° З 3 - 40 км туман облачно 757 768 -0.3 95% +9.3° 600 м - - - -
09:00 +9.1° З 2 - 0.2 км туман - 758 768 +0.1 100% +9.1° - - - - -
06:00 +7.8° З,Ю-З 1 - 4 км дымка облачно 758 768 +0.2 96% +7.2° 600 м - Сырая (есть малые или большие лужи) - -
03:00 +7.5° З 1 - 4 км дымка облачно 757 768 -0.3 95% +6.8° 600 м - - - -
00:00 +7.8° Ю-З 1 - 50 км - облачно 758 769 -0.6 93% +6.7° 600 м - - - -
Суббота, 13 Октября
Время местн. Темп Ветер Видим Явления Облачность нижн/средн/верх Атм. давл. Влжн Точка росы ВНГО R Сост. почвы Tg s
Напр Скр Прв ур.ст ур.м изм
21:00 +8.2° штиль 0 - 50 км - облачно 758 769 0 90% +6.7° 600 м - - - -
18:00 +8.1° В 1 - 50 км - облачно 758 769 -0.4 90% +6.6° 600 м - - - -
15:00 +7.8° З 1 - 40 км дымка облачно 759 770 -0.6 90% +6.2° 600 м - - - -
12:00 +7.6° З 2 - 40 км - облачно 759 770 -0.3 84% +5.1° 600 м - - - -
09:00 +6.4° С-З 1 - 40 км - облачно 760 771 -0.2 86% +4.2° 600 м - - - -
06:00 +6.6° З,С-З 1 - 50 км - облачно 760 771 +0.1 86% +4.4° 600 м - Сырая (есть малые или большие лужи) - -
03:00 +7.3° З,С-З 1 - 50 км - облачно 760 771 +0.1 84% +4.8° 600 м - - - -
00:00 +8° З 1 - более 50 км - облачно 760 771 0 86% +5.8° 600 м - - - -
Пятница, 12 Октября
Время местн. Темп Ветер Видим Явления Облачность нижн/средн/верх Атм. давл. Влжн Точка росы ВНГО R Сост. почвы Tg s
Напр Скр Прв ур.ст ур.м изм
21:00 +9.8° З,С-З 2 - 50 км - преимущественно облачно 760 770 -0.2 80% +6.5° 600 м - - - -